createdAt,value
2019-02-16T00:00:00.444Z,52.40
2019-02-16T00:02:28.856Z,53.30
2019-02-16T00:04:55.523Z,52.90
2019-02-16T00:07:21.954Z,52.90
2019-02-16T00:09:48.618Z,53.50
2019-02-16T00:12:15.193Z,53.30
2019-02-16T00:14:41.836Z,54.30
2019-02-16T00:17:08.361Z,55.30
2019-02-16T00:19:35.116Z,55.00
2019-02-16T00:22:01.605Z,55.20
2019-02-16T00:24:28.218Z,54.90
2019-02-16T00:26:56.933Z,55.10
2019-02-16T00:29:23.521Z,57.20
2019-02-16T00:31:52.932Z,57.20
2019-02-16T00:34:19.792Z,57.60
2019-02-16T00:36:46.881Z,57.90
2019-02-16T00:39:13.649Z,59.10
2019-02-16T00:41:40.130Z,57.40
2019-02-16T00:44:06.791Z,58.70
2019-02-16T00:46:35.468Z,59.10
2019-02-16T00:49:02.060Z,59.20
2019-02-16T00:51:28.672Z,60.10
2019-02-16T00:53:55.260Z,60.50
2019-02-16T00:56:21.897Z,62.20
2019-02-16T00:58:48.479Z,59.80
2019-02-16T01:01:15.208Z,61.60
2019-02-16T01:03:41.777Z,61.30
2019-02-16T01:06:08.557Z,63.80
2019-02-16T01:08:35.170Z,61.80
2019-02-16T01:11:01.785Z,63.00
2019-02-16T01:13:28.600Z,62.80
2019-02-16T01:15:55.085Z,64.70
2019-02-16T01:18:21.901Z,64.20
2019-02-16T01:20:48.609Z,63.10
2019-02-16T01:23:19.390Z,65.30
2019-02-16T01:25:46.310Z,64.80
2019-02-16T01:28:13.208Z,66.30
2019-02-16T01:30:39.870Z,66.60
2019-02-16T01:33:06.711Z,66.60
2019-02-16T01:35:33.296Z,65.90
2019-02-16T01:38:02.774Z,65.70
2019-02-16T01:40:33.528Z,67.20
2019-02-16T01:43:00.278Z,68.60
2019-02-16T01:45:27.145Z,69.00
2019-02-16T01:47:54.122Z,68.50
2019-02-16T01:50:20.828Z,69.20
2019-02-16T01:52:47.637Z,69.00
2019-02-16T01:55:14.276Z,70.60
2019-02-16T01:57:40.809Z,69.60
2019-02-16T02:00:08.131Z,70.00
2019-02-16T02:02:34.701Z,70.40
2019-02-16T02:05:07.676Z,70.40
2019-02-16T02:07:34.238Z,70.90
2019-02-16T02:10:00.937Z,70.20
2019-02-16T02:12:27.834Z,70.90
2019-02-16T02:14:54.798Z,71.20
2019-02-16T02:17:21.747Z,71.20
2019-02-16T02:19:48.535Z,71.90
2019-02-16T02:22:17.168Z,72.10
2019-02-16T02:24:44.095Z,73.30
2019-02-16T02:27:11.046Z,72.80
2019-02-16T02:29:37.634Z,72.50
2019-02-16T02:32:04.273Z,73.20
2019-02-16T02:34:30.950Z,72.40
2019-02-16T02:36:57.541Z,72.10
2019-02-16T02:39:24.240Z,73.50
2019-02-16T02:41:51.135Z,72.70
2019-02-16T02:44:17.910Z,71.60
2019-02-16T02:46:44.649Z,72.60
2019-02-16T02:49:11.359Z,72.30
2019-02-16T02:51:38.260Z,73.50
2019-02-16T02:54:05.113Z,72.90
2019-02-16T02:56:31.869Z,73.30
2019-02-16T02:58:58.627Z,74.70
2019-02-16T03:01:29.090Z,73.70
2019-02-16T03:03:55.442Z,73.80
2019-02-16T03:06:22.100Z,74.10
2019-02-16T03:08:50.597Z,74.70
2019-02-16T03:11:17.637Z,76.10
2019-02-16T03:13:45.811Z,75.80
2019-02-16T03:16:15.705Z,75.60
2019-02-16T03:18:42.452Z,76.60
2019-02-16T03:21:08.994Z,77.10
2019-02-16T03:23:35.667Z,78.00
2019-02-16T03:26:14.626Z,77.80
2019-02-16T03:28:45.001Z,78.20
2019-02-16T03:31:49.075Z,78.70
2019-02-16T03:34:28.247Z,80.10
2019-02-16T03:37:17.850Z,79.80
2019-02-16T03:39:45.751Z,80.70
2019-02-16T03:42:13.921Z,79.10
2019-02-16T03:44:40.855Z,79.80
2019-02-16T03:47:07.602Z,80.90
2019-02-16T03:49:34.328Z,81.10
2019-02-16T03:52:01.042Z,82.00
2019-02-16T03:54:28.140Z,80.80
2019-02-16T03:56:54.996Z,81.10
2019-02-16T03:59:21.745Z,81.30
2019-02-16T04:01:48.436Z,80.80
2019-02-16T04:04:15.118Z,80.30
2019-02-16T04:06:42.038Z,82.00
2019-02-16T04:09:08.658Z,83.00
2019-02-16T04:11:37.258Z,82.60
2019-02-16T04:14:03.926Z,82.20
2019-02-16T04:16:32.443Z,84.40
2019-02-16T04:19:00.804Z,83.80
2019-02-16T04:21:27.491Z,82.60
2019-02-16T04:23:54.393Z,82.20
2019-02-16T04:26:21.107Z,83.60
2019-02-16T04:28:48.180Z,83.80
2019-02-16T04:31:15.005Z,84.50
2019-02-16T04:33:41.869Z,83.30
2019-02-16T04:36:08.846Z,86.50
2019-02-16T04:38:35.724Z,84.60
2019-02-16T04:41:02.466Z,85.00
2019-02-16T04:43:29.440Z,84.10
2019-02-16T04:45:58.074Z,84.60
2019-02-16T04:48:24.972Z,86.40
2019-02-16T04:50:51.884Z,86.60
2019-02-16T04:53:18.519Z,86.60
2019-02-16T04:55:45.215Z,86.60
2019-02-16T04:58:11.914Z,84.70
2019-02-16T05:00:38.471Z,88.40
2019-02-16T05:03:05.166Z,89.00
2019-02-16T05:05:31.973Z,87.00
2019-02-16T05:07:58.499Z,87.40
2019-02-16T05:10:25.117Z,87.90
2019-02-16T05:12:51.783Z,88.50
2019-02-16T05:15:18.394Z,89.60
2019-02-16T05:17:44.970Z,89.40
2019-02-16T05:20:13.480Z,89.00
2019-02-16T05:22:44.527Z,88.20
2019-02-16T05:25:08.810Z,89.20
2019-02-16T05:27:35.540Z,88.70
2019-02-16T05:30:03.185Z,88.00
2019-02-16T05:32:29.983Z,86.10
2019-02-16T05:34:56.607Z,87.70
2019-02-16T05:37:23.189Z,86.60
2019-02-16T05:39:49.815Z,84.60
2019-02-16T05:42:16.528Z,85.00
2019-02-16T05:44:43.768Z,85.10
2019-02-16T05:47:10.772Z,86.00
2019-02-16T05:49:37.442Z,85.30
2019-02-16T05:52:04.519Z,85.70
2019-02-16T05:54:31.132Z,86.10
2019-02-16T05:56:57.826Z,86.00
2019-02-16T05:59:24.431Z,87.00
2019-02-16T06:01:53.748Z,88.00
2019-02-16T06:04:19.647Z,88.10
2019-02-16T06:06:46.645Z,87.60
2019-02-16T06:09:13.591Z,88.00
2019-02-16T06:11:40.413Z,88.20
2019-02-16T06:14:07.147Z,89.10
2019-02-16T06:16:33.959Z,90.00
2019-02-16T06:19:02.450Z,90.00
2019-02-16T06:21:29.342Z,90.10
2019-02-16T06:23:56.060Z,90.50
2019-02-16T06:26:24.690Z,90.00
2019-02-16T06:28:51.513Z,91.20
2019-02-16T06:31:18.058Z,90.90
2019-02-16T06:33:44.750Z,91.00
2019-02-16T06:36:13.362Z,90.40
2019-02-16T06:38:40.170Z,90.10
2019-02-16T06:41:06.687Z,90.60
2019-02-16T06:43:35.326Z,91.00
2019-02-16T06:46:01.929Z,90.80
2019-02-16T06:48:28.764Z,89.20
2019-02-16T06:50:58.386Z,89.40
2019-02-16T06:53:25.274Z,90.50
2019-02-16T06:55:53.866Z,90.40
2019-02-16T06:58:23.636Z,90.00
2019-02-16T07:00:50.465Z,90.10
2019-02-16T07:03:17.157Z,90.40
2019-02-16T07:05:44.205Z,90.40
2019-02-16T07:08:10.975Z,90.20
2019-02-16T07:10:37.577Z,90.40
2019-02-16T07:13:04.359Z,89.40
2019-02-16T07:15:30.913Z,89.70
2019-02-16T07:17:59.652Z,90.00
2019-02-16T07:20:26.328Z,87.00
2019-02-16T07:22:53.039Z,87.40
2019-02-16T07:25:20.011Z,87.30
2019-02-16T07:27:46.622Z,87.80
2019-02-16T07:30:13.216Z,89.30
2019-02-16T07:32:49.046Z,87.40
2019-02-16T07:35:15.656Z,86.00
2019-02-16T07:37:42.267Z,87.20
2019-02-16T07:40:11.542Z,87.30
2019-02-16T07:42:51.435Z,87.20
2019-02-16T07:45:23.217Z,86.90
2019-02-16T07:48:08.322Z,86.10
2019-02-16T07:50:52.977Z,86.20
2019-02-16T07:53:21.580Z,84.10
2019-02-16T07:55:56.037Z,83.00
2019-02-16T07:58:25.023Z,83.80
2019-02-16T08:01:02.165Z,83.70
2019-02-16T08:03:33.497Z,81.10
2019-02-16T08:06:07.859Z,81.10
2019-02-16T08:08:52.812Z,77.60
2019-02-16T08:11:21.412Z,76.70
2019-02-16T08:13:53.084Z,74.80
2019-02-16T08:16:24.804Z,73.20
2019-02-16T08:19:08.059Z,71.60
2019-02-16T08:21:54.699Z,70.90
2019-02-16T08:24:32.469Z,70.20
2019-02-16T08:27:10.095Z,65.20
2019-02-16T08:29:41.231Z,60.90
2019-02-16T08:32:11.640Z,55.60
2019-02-16T08:34:46.113Z,45.50
2019-02-16T08:37:17.229Z,38.00
2019-02-16T08:39:54.658Z,33.80
2019-02-16T08:42:28.635Z,32.10
2019-02-16T08:44:57.003Z,29.60
2019-02-16T08:47:40.839Z,28.70
2019-02-16T08:50:12.115Z,29.60
2019-02-16T08:52:46.647Z,28.50
2019-02-16T08:55:27.404Z,28.10
2019-02-16T08:57:58.484Z,26.50
2019-02-16T09:00:43.541Z,25.50
2019-02-16T09:03:11.929Z,24.40
2019-02-16T09:05:40.315Z,21.80
2019-02-16T09:08:08.692Z,22.00
2019-02-16T09:10:37.149Z,21.70
2019-02-16T09:13:05.640Z,21.40
2019-02-16T09:15:42.925Z,19.10
2019-02-16T09:18:20.497Z,18.40
2019-02-16T09:20:50.808Z,19.60
2019-02-16T09:23:35.739Z,20.10
2019-02-16T09:26:23.787Z,20.00
2019-02-16T09:28:52.252Z,20.50
2019-02-16T09:31:29.424Z,22.10
2019-02-16T09:34:03.506Z,23.10
2019-02-16T09:36:40.844Z,24.10
2019-02-16T09:39:12.163Z,21.60
2019-02-16T09:41:52.564Z,21.20
2019-02-16T09:44:21.136Z,20.70
2019-02-16T09:46:52.382Z,20.90
2019-02-16T09:49:20.768Z,20.60
2019-02-16T09:51:54.706Z,19.10
2019-02-16T09:54:23.157Z,19.40
2019-02-16T09:56:57.500Z,19.10
2019-02-16T09:59:28.920Z,19.10
2019-02-16T10:01:59.972Z,20.40
2019-02-16T10:04:31.395Z,20.30
2019-02-16T10:06:59.763Z,19.20
2019-02-16T10:09:34.353Z,19.20
2019-02-16T10:12:19.411Z,18.00
2019-02-16T10:14:52.780Z,19.70
2019-02-16T10:17:29.964Z,19.40
2019-02-16T10:20:07.209Z,19.10
2019-02-16T10:22:54.031Z,18.90
2019-02-16T10:25:25.869Z,17.70
2019-02-16T10:27:54.538Z,18.40
2019-02-16T10:30:23.077Z,17.70
2019-02-16T10:32:51.810Z,15.80
2019-02-16T10:35:23.302Z,16.20
2019-02-16T10:38:08.465Z,16.20
2019-02-16T10:40:48.996Z,17.70
2019-02-16T10:43:23.529Z,15.20
2019-02-16T10:46:08.293Z,15.50
2019-02-16T10:48:36.780Z,16.10
2019-02-16T10:51:23.480Z,14.70
2019-02-16T10:53:54.626Z,15.00
2019-02-16T10:56:39.328Z,15.00
2019-02-16T10:59:07.815Z,15.90
2019-02-16T11:01:36.369Z,17.50
2019-02-16T11:04:04.959Z,15.50
2019-02-16T11:06:36.052Z,14.10
2019-02-16T11:09:09.285Z,14.60
2019-02-16T11:11:40.633Z,14.80
2019-02-16T11:14:14.989Z,14.50
2019-02-16T11:16:49.323Z,14.50
2019-02-16T11:19:20.474Z,15.90
2019-02-16T11:21:51.857Z,15.60
2019-02-16T11:24:36.508Z,16.50
2019-02-16T11:27:07.973Z,15.30
2019-02-16T11:29:36.713Z,14.90
2019-02-16T11:32:05.484Z,14.50
2019-02-16T11:34:51.615Z,14.10
2019-02-16T11:37:31.993Z,15.30
2019-02-16T11:40:09.668Z,17.70
2019-02-16T11:42:41.009Z,17.10
2019-02-16T11:45:33.214Z,17.60
2019-02-16T11:48:01.685Z,17.00
2019-02-16T11:50:33.222Z,16.70
2019-02-16T11:53:19.764Z,16.50
2019-02-16T11:55:48.136Z,15.60
2019-02-16T11:58:33.045Z,14.50
2019-02-16T12:01:07.701Z,15.30
2019-02-16T12:03:41.943Z,15.40
2019-02-16T12:06:13.373Z,15.80
2019-02-16T12:08:47.566Z,15.00
2019-02-16T12:11:16.064Z,12.60
2019-02-16T12:13:44.443Z,13.60
2019-02-16T12:16:12.913Z,12.80
2019-02-16T12:18:41.264Z,14.90
2019-02-16T12:21:15.464Z,13.70
2019-02-16T12:23:46.759Z,15.00
2019-02-16T12:26:17.863Z,15.40
2019-02-16T12:28:49.604Z,14.50
2019-02-16T12:31:26.962Z,13.20
2019-02-16T12:34:04.486Z,12.60
2019-02-16T12:36:35.883Z,10.90
2019-02-16T12:39:10.018Z,12.80
2019-02-16T12:41:53.587Z,13.60
2019-02-16T12:44:25.217Z,15.30
2019-02-16T12:46:59.422Z,15.00
2019-02-16T12:49:33.768Z,15.40
2019-02-16T12:52:11.263Z,13.40
2019-02-16T12:54:42.345Z,13.90
2019-02-16T12:57:13.805Z,14.20
2019-02-16T12:59:42.168Z,14.50
2019-02-16T13:02:10.529Z,13.20
2019-02-16T13:04:50.756Z,13.00
2019-02-16T13:07:28.036Z,12.60
2019-02-16T13:10:05.492Z,13.30
2019-02-16T13:12:35.376Z,13.60
2019-02-16T13:15:04.323Z,14.80
2019-02-16T13:17:32.672Z,15.20
2019-02-16T13:20:13.140Z,15.10
2019-02-16T13:22:41.516Z,14.50
2019-02-16T13:25:12.970Z,13.90
2019-02-16T13:27:41.741Z,14.50
2019-02-16T13:30:10.356Z,14.60
2019-02-16T13:32:56.556Z,14.10
2019-02-16T13:35:25.256Z,14.50
2019-02-16T13:37:59.639Z,14.70
2019-02-16T13:40:31.024Z,13.60
2019-02-16T13:43:05.486Z,14.20
2019-02-16T13:45:52.245Z,13.20
2019-02-16T13:48:20.692Z,13.40
2019-02-16T13:50:49.166Z,14.10
2019-02-16T13:53:20.504Z,14.80
2019-02-16T13:55:49.288Z,15.60
2019-02-16T13:58:33.988Z,15.20
2019-02-16T14:01:02.388Z,16.00
2019-02-16T14:03:31.253Z,15.50
2019-02-16T14:06:05.333Z,14.80
2019-02-16T14:08:36.739Z,14.40
2019-02-16T14:11:11.078Z,14.20
2019-02-16T14:13:42.432Z,15.40
2019-02-16T14:16:10.796Z,14.30
2019-02-16T14:18:37.581Z,14.50
2019-02-16T14:21:04.046Z,15.00
2019-02-16T14:23:30.647Z,14.60
2019-02-16T14:25:57.491Z,15.30
2019-02-16T14:28:23.895Z,15.70
2019-02-16T14:30:50.446Z,16.30
2019-02-16T14:33:17.156Z,15.80
2019-02-16T14:35:43.980Z,16.30
2019-02-16T14:38:12.363Z,16.20
2019-02-16T14:40:38.812Z,15.90
2019-02-16T14:43:05.394Z,15.70
2019-02-16T14:45:33.861Z,16.00
2019-02-16T14:48:00.572Z,17.10
2019-02-16T14:50:27.131Z,16.20
2019-02-16T14:52:53.643Z,16.30
2019-02-16T14:55:20.297Z,16.60
2019-02-16T14:57:46.817Z,15.50
2019-02-16T15:00:13.355Z,15.30
2019-02-16T15:02:39.921Z,15.50
2019-02-16T15:05:08.032Z,15.60
2019-02-16T15:07:34.597Z,15.30
2019-02-16T15:10:01.554Z,15.10
2019-02-16T15:12:28.228Z,15.20
2019-02-16T15:14:54.801Z,15.70
2019-02-16T15:17:21.371Z,16.40
2019-02-16T15:19:47.864Z,16.70
2019-02-16T15:22:14.703Z,15.90
2019-02-16T15:24:41.465Z,16.00
2019-02-16T15:27:08.037Z,15.50
2019-02-16T15:29:34.724Z,14.80
2019-02-16T15:32:01.477Z,15.60
2019-02-16T15:34:27.965Z,15.60
2019-02-16T15:36:54.570Z,15.50
2019-02-16T15:39:21.065Z,16.60
2019-02-16T15:41:47.811Z,15.80
2019-02-16T15:44:14.423Z,15.90
2019-02-16T15:46:40.901Z,15.20
2019-02-16T15:49:07.380Z,16.70
2019-02-16T15:51:34.207Z,15.80
2019-02-16T15:54:01.079Z,16.10
2019-02-16T15:56:27.659Z,16.50
2019-02-16T15:58:54.519Z,16.90
2019-02-16T16:01:21.005Z,17.50
2019-02-16T16:03:47.486Z,18.20
2019-02-16T16:06:14.128Z,18.40
2019-02-16T16:08:45.476Z,19.60
2019-02-16T16:11:16.567Z,20.00
2019-02-16T16:13:50.775Z,20.20
2019-02-16T16:16:22.138Z,20.10
2019-02-16T16:18:59.487Z,20.20
2019-02-16T16:21:30.552Z,20.00
2019-02-16T16:24:04.948Z,21.80
2019-02-16T16:26:39.721Z,21.20
2019-02-16T16:29:24.807Z,21.10
2019-02-16T16:32:08.391Z,21.30
2019-02-16T16:34:42.900Z,21.20
2019-02-16T16:37:17.590Z,23.20
2019-02-16T16:40:00.943Z,24.00
2019-02-16T16:42:45.789Z,23.60
2019-02-16T16:45:14.364Z,23.70
2019-02-16T16:47:48.587Z,25.10
2019-02-16T16:50:25.724Z,24.60
2019-02-16T16:52:54.207Z,24.50
2019-02-16T16:55:22.588Z,24.90
2019-02-16T16:58:07.477Z,27.80
2019-02-16T17:00:36.136Z,27.00
2019-02-16T17:03:04.998Z,26.90
2019-02-16T17:05:33.621Z,27.40
2019-02-16T17:08:02.080Z,27.60
2019-02-16T17:10:45.840Z,27.90
2019-02-16T17:13:30.738Z,28.50
2019-02-16T17:16:15.769Z,28.90
2019-02-16T17:18:44.134Z,28.50
2019-02-16T17:21:18.480Z,30.20
2019-02-16T17:23:56.126Z,30.50
2019-02-16T17:26:27.382Z,30.90
2019-02-16T17:29:01.239Z,31.00
2019-02-16T17:31:35.595Z,31.10
2019-02-16T17:34:20.452Z,33.10
2019-02-16T17:37:00.922Z,33.50
2019-02-16T17:39:38.335Z,33.40
2019-02-16T17:42:15.791Z,33.50
2019-02-16T17:44:44.269Z,34.70
2019-02-16T17:47:21.497Z,35.00
2019-02-16T17:49:52.569Z,36.00
2019-02-16T17:52:39.088Z,37.00
2019-02-16T17:55:13.567Z,37.40
2019-02-16T17:57:47.968Z,38.10
2019-02-16T18:00:19.307Z,38.70
2019-02-16T18:02:47.652Z,39.60
2019-02-16T18:05:24.837Z,40.30
2019-02-16T18:07:59.150Z,40.60
2019-02-16T18:10:30.617Z,42.10
2019-02-16T18:12:58.960Z,43.10
2019-02-16T18:15:43.599Z,44.60
2019-02-16T18:18:21.161Z,45.10
2019-02-16T18:20:52.235Z,44.00
2019-02-16T18:23:26.704Z,43.60
2019-02-16T18:25:55.055Z,45.40
2019-02-16T18:28:40.358Z,45.40
2019-02-16T18:31:25.048Z,47.90
2019-02-16T18:33:53.454Z,48.80
2019-02-16T18:36:27.877Z,48.20
2019-02-16T18:38:59.313Z,47.10
2019-02-16T18:41:39.955Z,48.20
2019-02-16T18:44:20.066Z,49.00
2019-02-16T18:46:48.421Z,51.40
2019-02-16T18:49:33.490Z,51.50
2019-02-16T18:52:18.473Z,51.90
2019-02-16T18:54:59.202Z,52.20
2019-02-16T18:57:27.601Z,53.30
2019-02-16T19:00:11.159Z,54.30
2019-02-16T19:02:39.624Z,55.50
2019-02-16T19:05:17.131Z,56.10
2019-02-16T19:07:51.137Z,58.10
2019-02-16T19:10:31.679Z,57.20
2019-02-16T19:13:08.773Z,56.70
2019-02-16T19:15:46.014Z,57.90
2019-02-16T19:18:30.953Z,61.60
2019-02-16T19:21:04.970Z,61.10
2019-02-16T19:23:42.485Z,62.60
2019-02-16T19:26:16.717Z,63.30
2019-02-16T19:28:53.994Z,62.00
2019-02-16T19:31:25.092Z,63.60
2019-02-16T19:34:11.563Z,63.10
2019-02-16T19:36:42.829Z,61.50
2019-02-16T19:39:11.304Z,62.20
2019-02-16T19:41:39.951Z,62.70
2019-02-16T19:44:11.188Z,63.20
2019-02-16T19:46:56.179Z,62.40
2019-02-16T19:49:30.675Z,62.60
2019-02-16T19:51:59.265Z,62.10
2019-02-16T19:54:44.208Z,62.20
2019-02-16T19:57:15.852Z,60.20
2019-02-16T19:59:53.725Z,61.70
2019-02-16T20:02:24.835Z,61.80
2019-02-16T20:04:55.916Z,62.50
2019-02-16T20:07:24.400Z,63.00
2019-02-16T20:09:58.495Z,63.40
2019-02-16T20:12:29.612Z,62.60
2019-02-16T20:14:57.972Z,62.50
2019-02-16T20:17:32.496Z,63.70
2019-02-16T20:20:15.781Z,64.70
2019-02-16T20:22:47.236Z,64.50
2019-02-16T20:25:15.886Z,64.50
2019-02-16T20:28:00.745Z,63.70
2019-02-16T20:30:29.237Z,62.70
2019-02-16T20:32:57.708Z,63.20
2019-02-16T20:35:35.225Z,63.80
2019-02-16T20:38:03.980Z,63.70
2019-02-16T20:40:35.053Z,63.20
2019-02-16T20:43:18.756Z,64.80
2019-02-16T20:45:47.203Z,67.00
2019-02-16T20:48:21.777Z,68.50
2019-02-16T20:51:02.094Z,72.60
2019-02-16T20:53:45.587Z,72.10
2019-02-16T20:56:14.040Z,73.00
2019-02-16T20:58:51.516Z,74.60
2019-02-16T21:01:25.437Z,76.50
2019-02-16T21:03:53.829Z,78.60
2019-02-16T21:06:28.537Z,78.30
2019-02-16T21:08:57.184Z,75.00
2019-02-16T21:11:31.755Z,77.70
2019-02-16T21:14:09.276Z,77.20
2019-02-16T21:16:37.732Z,75.50
2019-02-16T21:19:12.403Z,75.10
2019-02-16T21:21:49.769Z,75.10
2019-02-16T21:24:21.551Z,73.10
2019-02-16T21:27:06.343Z,75.10
2019-02-16T21:29:46.908Z,74.10
2019-02-16T21:32:21.706Z,75.20
2019-02-16T21:34:52.905Z,75.90
2019-02-16T21:37:36.352Z,76.50
2019-02-16T21:40:06.073Z,78.00
2019-02-16T21:42:34.541Z,80.00
2019-02-16T21:45:03.296Z,82.00
2019-02-16T21:47:40.495Z,82.80
2019-02-16T21:50:10.012Z,83.60
2019-02-16T21:52:53.250Z,84.60
2019-02-16T21:55:24.607Z,85.80
2019-02-16T21:58:07.801Z,87.40
2019-02-16T22:00:38.158Z,88.00
2019-02-16T22:03:12.531Z,88.60
2019-02-16T22:05:46.993Z,90.70
2019-02-16T22:08:21.345Z,90.90
2019-02-16T22:11:07.914Z,91.70
2019-02-16T22:13:35.035Z,91.20
2019-02-16T22:16:01.943Z,91.80
2019-02-16T22:18:28.657Z,91.70
2019-02-16T22:20:55.527Z,92.50
2019-02-16T22:23:22.242Z,92.30
2019-02-16T22:25:48.917Z,92.10
2019-02-16T22:28:18.764Z,92.30
2019-02-16T22:30:44.208Z,93.40
2019-02-16T22:33:10.964Z,93.50
2019-02-16T22:35:37.879Z,94.20
2019-02-16T22:38:04.460Z,94.90
2019-02-16T22:40:31.143Z,95.20
2019-02-16T22:42:57.731Z,95.80
2019-02-16T22:45:24.458Z,95.40
2019-02-16T22:47:50.929Z,94.80
2019-02-16T22:50:17.970Z,94.70
2019-02-16T22:52:44.653Z,94.00
2019-02-16T22:55:11.575Z,93.80
2019-02-16T22:57:38.216Z,93.20
2019-02-16T23:00:11.185Z,92.80
2019-02-16T23:02:37.960Z,93.10
2019-02-16T23:05:05.040Z,93.30
2019-02-16T23:07:31.720Z,93.30
2019-02-16T23:09:58.428Z,92.80
2019-02-16T23:12:24.995Z,93.80
2019-02-16T23:14:51.723Z,93.50
2019-02-16T23:17:18.400Z,94.00
2019-02-16T23:19:45.009Z,94.10
2019-02-16T23:22:11.701Z,94.20
2019-02-16T23:24:38.380Z,94.60
2019-02-16T23:27:05.044Z,95.40
2019-02-16T23:29:31.742Z,95.70
2019-02-16T23:31:58.422Z,95.60
2019-02-16T23:34:25.214Z,95.60
2019-02-16T23:36:51.907Z,95.70
2019-02-16T23:39:18.414Z,95.80
2019-02-16T23:41:45.114Z,95.40
2019-02-16T23:44:11.731Z,95.60
2019-02-16T23:46:38.432Z,96.10
2019-02-16T23:49:05.246Z,95.00
2019-02-16T23:51:31.927Z,95.00
2019-02-16T23:53:58.721Z,94.20
2019-02-16T23:56:26.156Z,94.00
2019-02-16T23:58:52.852Z,93.70
